sensor_id;sensor_type;location;lat;lon;timestamp;temperature;humidity
34644;DHT22;26931;43.498;-1.506;2022-11-20T00:01:28;11.30;96.10
34644;DHT22;26931;43.498;-1.506;2022-11-20T00:04:02;11.20;96.10
34644;DHT22;26931;43.498;-1.506;2022-11-20T00:06:35;11.20;96.10
34644;DHT22;26931;43.498;-1.506;2022-11-20T00:09:06;11.30;96.10
34644;DHT22;26931;43.498;-1.506;2022-11-20T00:11:37;11.40;96.10
34644;DHT22;26931;43.498;-1.506;2022-11-20T00:14:03;11.20;96.10
34644;DHT22;26931;43.498;-1.506;2022-11-20T00:16:38;11.20;96.00
34644;DHT22;26931;43.498;-1.506;2022-11-20T00:19:12;11.20;96.00
34644;DHT22;26931;43.498;-1.506;2022-11-20T00:21:41;11.20;96.10
34644;DHT22;26931;43.498;-1.506;2022-11-20T00:24:08;11.20;96.10
34644;DHT22;26931;43.498;-1.506;2022-11-20T00:26:35;11.20;96.10
34644;DHT22;26931;43.498;-1.506;2022-11-20T00:29:02;11.20;96.10
34644;DHT22;26931;43.498;-1.506;2022-11-20T00:31:28;11.20;96.10
34644;DHT22;26931;43.498;-1.506;2022-11-20T00:34:09;11.20;96.10
34644;DHT22;26931;43.498;-1.506;2022-11-20T00:36:46;11.20;96.10
34644;DHT22;26931;43.498;-1.506;2022-11-20T00:39:30;11.20;96.10
34644;DHT22;26931;43.498;-1.506;2022-11-20T00:42:02;11.20;96.20
34644;DHT22;26931;43.498;-1.506;2022-11-20T00:44:28;11.20;96.20
34644;DHT22;26931;43.498;-1.506;2022-11-20T00:46:54;11.20;96.20
34644;DHT22;26931;43.498;-1.506;2022-11-20T00:49:19;11.20;96.20
34644;DHT22;26931;43.498;-1.506;2022-11-20T00:51:45;11.20;96.30
34644;DHT22;26931;43.498;-1.506;2022-11-20T00:54:11;11.20;96.30
34644;DHT22;26931;43.498;-1.506;2022-11-20T00:56:36;11.20;96.30
34644;DHT22;26931;43.498;-1.506;2022-11-20T00:59:02;11.20;96.30
34644;DHT22;26931;43.498;-1.506;2022-11-20T01:01:29;11.30;96.30
34644;DHT22;26931;43.498;-1.506;2022-11-20T01:04:09;11.00;96.20
34644;DHT22;26931;43.498;-1.506;2022-11-20T01:06:41;11.20;96.30
34644;DHT22;26931;43.498;-1.506;2022-11-20T01:09:12;11.30;96.20
34644;DHT22;26931;43.498;-1.506;2022-11-20T01:11:43;11.30;96.20
34644;DHT22;26931;43.498;-1.506;2022-11-20T01:14:12;11.30;96.30
34644;DHT22;26931;43.498;-1.506;2022-11-20T01:16:47;11.30;96.20
34644;DHT22;26931;43.498;-1.506;2022-11-20T01:19:20;11.40;96.20
34644;DHT22;26931;43.498;-1.506;2022-11-20T01:21:50;11.40;96.20
34644;DHT22;26931;43.498;-1.506;2022-11-20T01:24:18;11.40;96.10
34644;DHT22;26931;43.498;-1.506;2022-11-20T01:26:45;11.40;96.10
34644;DHT22;26931;43.498;-1.506;2022-11-20T01:29:20;11.40;96.20
34644;DHT22;26931;43.498;-1.506;2022-11-20T01:31:52;11.40;96.20
34644;DHT22;26931;43.498;-1.506;2022-11-20T01:34:20;11.40;96.20
34644;DHT22;26931;43.498;-1.506;2022-11-20T01:36:46;11.30;96.20
34644;DHT22;26931;43.498;-1.506;2022-11-20T01:39:23;11.40;96.20
34644;DHT22;26931;43.498;-1.506;2022-11-20T01:41:56;11.40;96.20
34644;DHT22;26931;43.498;-1.506;2022-11-20T01:44:58;11.40;96.20
34644;DHT22;26931;43.498;-1.506;2022-11-20T01:47:46;11.40;96.30
34644;DHT22;26931;43.498;-1.506;2022-11-20T01:50:27;11.40;96.30
34644;DHT22;26931;43.498;-1.506;2022-11-20T01:53:05;11.50;96.40
34644;DHT22;26931;43.498;-1.506;2022-11-20T01:55:48;11.50;96.30
34644;DHT22;26931;43.498;-1.506;2022-11-20T01:58:16;11.40;96.30
34644;DHT22;26931;43.498;-1.506;2022-11-20T02:00:42;11.40;96.30
34644;DHT22;26931;43.498;-1.506;2022-11-20T02:03:11;11.40;96.30
34644;DHT22;26931;43.498;-1.506;2022-11-20T02:05:51;11.40;96.30
34644;DHT22;26931;43.498;-1.506;2022-11-20T02:08:22;11.40;96.20
34644;DHT22;26931;43.498;-1.506;2022-11-20T02:11:02;11.40;96.20
34644;DHT22;26931;43.498;-1.506;2022-11-20T02:13:28;11.40;96.20
34644;DHT22;26931;43.498;-1.506;2022-11-20T02:18:44;11.40;96.30
34644;DHT22;26931;43.498;-1.506;2022-11-20T02:24:03;11.40;96.30
34644;DHT22;26931;43.498;-1.506;2022-11-20T02:26:31;11.40;96.30
34644;DHT22;26931;43.498;-1.506;2022-11-20T02:29:00;11.40;96.20
34644;DHT22;26931;43.498;-1.506;2022-11-20T02:31:26;11.30;96.30
34644;DHT22;26931;43.498;-1.506;2022-11-20T02:33:56;11.40;96.20
34644;DHT22;26931;43.498;-1.506;2022-11-20T02:36:24;11.40;96.30
34644;DHT22;26931;43.498;-1.506;2022-11-20T02:38:51;11.40;96.20
34644;DHT22;26931;43.498;-1.506;2022-11-20T02:41:17;11.40;96.20
34644;DHT22;26931;43.498;-1.506;2022-11-20T02:43:46;11.50;96.30
34644;DHT22;26931;43.498;-1.506;2022-11-20T02:46:12;11.50;96.30
34644;DHT22;26931;43.498;-1.506;2022-11-20T02:48:47;11.40;96.20
34644;DHT22;26931;43.498;-1.506;2022-11-20T02:51:16;11.40;96.60
34644;DHT22;26931;43.498;-1.506;2022-11-20T02:53:41;11.40;96.30
34644;DHT22;26931;43.498;-1.506;2022-11-20T02:56:07;11.40;96.20
34644;DHT22;26931;43.498;-1.506;2022-11-20T02:58:33;11.40;96.20
34644;DHT22;26931;43.498;-1.506;2022-11-20T03:00:58;11.40;96.20
34644;DHT22;26931;43.498;-1.506;2022-11-20T03:03:24;11.40;96.10
34644;DHT22;26931;43.498;-1.506;2022-11-20T03:05:50;11.40;96.10
34644;DHT22;26931;43.498;-1.506;2022-11-20T03:08:16;11.40;96.20
34644;DHT22;26931;43.498;-1.506;2022-11-20T03:10:41;11.40;96.10
34644;DHT22;26931;43.498;-1.506;2022-11-20T03:13:07;11.40;96.00
34644;DHT22;26931;43.498;-1.506;2022-11-20T03:15:33;11.40;96.00
34644;DHT22;26931;43.498;-1.506;2022-11-20T03:18:04;11.40;96.00
34644;DHT22;26931;43.498;-1.506;2022-11-20T03:20:33;11.40;96.00
34644;DHT22;26931;43.498;-1.506;2022-11-20T03:23:03;11.40;96.30
34644;DHT22;26931;43.498;-1.506;2022-11-20T03:25:35;11.50;96.00
34644;DHT22;26931;43.498;-1.506;2022-11-20T03:28:06;11.40;96.00
34644;DHT22;26931;43.498;-1.506;2022-11-20T03:30:41;11.40;96.10
34644;DHT22;26931;43.498;-1.506;2022-11-20T03:33:10;11.30;96.00
34644;DHT22;26931;43.498;-1.506;2022-11-20T03:35:35;11.30;96.10
34644;DHT22;26931;43.498;-1.506;2022-11-20T03:38:01;11.40;96.10
34644;DHT22;26931;43.498;-1.506;2022-11-20T03:40:27;11.30;96.10
34644;DHT22;26931;43.498;-1.506;2022-11-20T03:42:52;11.30;96.20
34644;DHT22;26931;43.498;-1.506;2022-11-20T03:45:18;11.40;96.20
34644;DHT22;26931;43.498;-1.506;2022-11-20T03:47:45;11.40;96.20
34644;DHT22;26931;43.498;-1.506;2022-11-20T03:50:12;11.40;96.20
34644;DHT22;26931;43.498;-1.506;2022-11-20T03:52:39;11.40;96.10
34644;DHT22;26931;43.498;-1.506;2022-11-20T03:55:06;11.40;96.10
34644;DHT22;26931;43.498;-1.506;2022-11-20T03:57:32;11.40;96.00
34644;DHT22;26931;43.498;-1.506;2022-11-20T03:59:58;11.40;96.00
34644;DHT22;26931;43.498;-1.506;2022-11-20T04:02:27;11.70;96.10
34644;DHT22;26931;43.498;-1.506;2022-11-20T04:04:56;11.30;96.00
34644;DHT22;26931;43.498;-1.506;2022-11-20T04:07:22;11.30;96.10
34644;DHT22;26931;43.498;-1.506;2022-11-20T04:09:54;11.30;96.00
34644;DHT22;26931;43.498;-1.506;2022-11-20T04:12:20;11.30;96.00
34644;DHT22;26931;43.498;-1.506;2022-11-20T04:14:51;11.30;96.00
34644;DHT22;26931;43.498;-1.506;2022-11-20T04:17:22;11.10;95.90
34644;DHT22;26931;43.498;-1.506;2022-11-20T04:19:52;11.20;95.90
34644;DHT22;26931;43.498;-1.506;2022-11-20T04:22:26;11.20;95.90
34644;DHT22;26931;43.498;-1.506;2022-11-20T04:24:51;11.20;95.80
34644;DHT22;26931;43.498;-1.506;2022-11-20T04:27:17;11.20;95.80
34644;DHT22;26931;43.498;-1.506;2022-11-20T04:29:43;11.10;95.70
34644;DHT22;26931;43.498;-1.506;2022-11-20T04:32:08;11.10;95.80
34644;DHT22;26931;43.498;-1.506;2022-11-20T04:34:34;11.20;95.80
34644;DHT22;26931;43.498;-1.506;2022-11-20T04:37:06;11.30;95.80
34644;DHT22;26931;43.498;-1.506;2022-11-20T04:39:38;11.30;95.80
34644;DHT22;26931;43.498;-1.506;2022-11-20T04:42:09;11.10;95.70
34644;DHT22;26931;43.498;-1.506;2022-11-20T04:44:54;11.10;95.70
34644;DHT22;26931;43.498;-1.506;2022-11-20T04:47:20;11.10;95.70
34644;DHT22;26931;43.498;-1.506;2022-11-20T04:49:45;11.00;95.70
34644;DHT22;26931;43.498;-1.506;2022-11-20T04:52:11;11.10;95.80
34644;DHT22;26931;43.498;-1.506;2022-11-20T04:54:37;11.10;95.70
34644;DHT22;26931;43.498;-1.506;2022-11-20T04:57:06;11.10;95.80
34644;DHT22;26931;43.498;-1.506;2022-11-20T04:59:38;11.10;95.80
34644;DHT22;26931;43.498;-1.506;2022-11-20T05:02:12;11.10;95.80
34644;DHT22;26931;43.498;-1.506;2022-11-20T05:04:44;11.00;95.90
34644;DHT22;26931;43.498;-1.506;2022-11-20T05:07:15;11.00;95.90
34644;DHT22;26931;43.498;-1.506;2022-11-20T05:09:41;11.00;95.80
34644;DHT22;26931;43.498;-1.506;2022-11-20T05:12:13;11.10;95.80
34644;DHT22;26931;43.498;-1.506;2022-11-20T05:14:39;11.10;95.80
34644;DHT22;26931;43.498;-1.506;2022-11-20T05:17:05;11.10;95.80
34644;DHT22;26931;43.498;-1.506;2022-11-20T05:19:31;11.10;95.80
34644;DHT22;26931;43.498;-1.506;2022-11-20T05:22:00;11.10;95.80
34644;DHT22;26931;43.498;-1.506;2022-11-20T05:24:28;11.00;95.80
34644;DHT22;26931;43.498;-1.506;2022-11-20T05:26:54;11.10;95.90
34644;DHT22;26931;43.498;-1.506;2022-11-20T05:29:19;11.10;95.80
34644;DHT22;26931;43.498;-1.506;2022-11-20T05:31:51;11.00;95.70
34644;DHT22;26931;43.498;-1.506;2022-11-20T05:34:19;11.00;95.80
34644;DHT22;26931;43.498;-1.506;2022-11-20T05:36:45;11.00;95.80
34644;DHT22;26931;43.498;-1.506;2022-11-20T05:39:11;11.10;95.80
34644;DHT22;26931;43.498;-1.506;2022-11-20T05:41:40;10.90;95.80
34644;DHT22;26931;43.498;-1.506;2022-11-20T05:44:12;11.10;95.90
34644;DHT22;26931;43.498;-1.506;2022-11-20T05:46:38;11.10;95.90
34644;DHT22;26931;43.498;-1.506;2022-11-20T05:49:07;11.30;96.00
34644;DHT22;26931;43.498;-1.506;2022-11-20T05:51:39;11.00;95.90
34644;DHT22;26931;43.498;-1.506;2022-11-20T05:54:04;11.10;95.90
34644;DHT22;26931;43.498;-1.506;2022-11-20T05:56:30;11.10;96.00
34644;DHT22;26931;43.498;-1.506;2022-11-20T05:58:59;11.10;96.00
34644;DHT22;26931;43.498;-1.506;2022-11-20T06:01:33;11.10;95.90
34644;DHT22;26931;43.498;-1.506;2022-11-20T06:04:08;11.00;96.00
34644;DHT22;26931;43.498;-1.506;2022-11-20T06:06:43;11.00;96.00
34644;DHT22;26931;43.498;-1.506;2022-11-20T06:09:15;11.00;96.00
34644;DHT22;26931;43.498;-1.506;2022-11-20T06:11:44;10.90;95.80
34644;DHT22;26931;43.498;-1.506;2022-11-20T06:14:14;11.00;95.80
34644;DHT22;26931;43.498;-1.506;2022-11-20T06:16:42;11.00;95.70
34644;DHT22;26931;43.498;-1.506;2022-11-20T06:19:08;10.90;95.70
34644;DHT22;26931;43.498;-1.506;2022-11-20T06:21:34;11.00;95.80
34644;DHT22;26931;43.498;-1.506;2022-11-20T06:24:00;10.90;95.80
34644;DHT22;26931;43.498;-1.506;2022-11-20T06:26:26;10.90;95.80
34644;DHT22;26931;43.498;-1.506;2022-11-20T06:28:54;11.00;95.80
34644;DHT22;26931;43.498;-1.506;2022-11-20T06:31:25;11.00;95.90
34644;DHT22;26931;43.498;-1.506;2022-11-20T06:33:59;11.00;95.90
34644;DHT22;26931;43.498;-1.506;2022-11-20T06:36:28;11.00;96.00
34644;DHT22;26931;43.498;-1.506;2022-11-20T06:38:57;10.90;96.00
34644;DHT22;26931;43.498;-1.506;2022-11-20T06:41:27;10.90;96.00
34644;DHT22;26931;43.498;-1.506;2022-11-20T06:44:01;11.00;96.00
34644;DHT22;26931;43.498;-1.506;2022-11-20T06:46:34;10.90;95.90
34644;DHT22;26931;43.498;-1.506;2022-11-20T06:49:03;10.90;95.90
34644;DHT22;26931;43.498;-1.506;2022-11-20T06:51:30;10.90;95.90
34644;DHT22;26931;43.498;-1.506;2022-11-20T06:53:59;10.90;95.90
34644;DHT22;26931;43.498;-1.506;2022-11-20T06:56:30;10.90;95.90
34644;DHT22;26931;43.498;-1.506;2022-11-20T06:58:58;10.90;95.90
34644;DHT22;26931;43.498;-1.506;2022-11-20T07:01:23;11.00;95.90
34644;DHT22;26931;43.498;-1.506;2022-11-20T07:03:52;11.00;95.90
34644;DHT22;26931;43.498;-1.506;2022-11-20T07:06:21;10.90;95.90
34644;DHT22;26931;43.498;-1.506;2022-11-20T07:08:46;11.00;96.00
34644;DHT22;26931;43.498;-1.506;2022-11-20T07:11:12;10.90;95.90
34644;DHT22;26931;43.498;-1.506;2022-11-20T07:13:38;11.00;96.00
34644;DHT22;26931;43.498;-1.506;2022-11-20T07:16:06;11.00;95.90
34644;DHT22;26931;43.498;-1.506;2022-11-20T07:18:33;11.00;96.00
34644;DHT22;26931;43.498;-1.506;2022-11-20T07:21:07;11.00;96.00
34644;DHT22;26931;43.498;-1.506;2022-11-20T07:23:32;11.10;96.00
34644;DHT22;26931;43.498;-1.506;2022-11-20T07:26:03;11.10;96.00
34644;DHT22;26931;43.498;-1.506;2022-11-20T07:28:38;11.00;96.00
34644;DHT22;26931;43.498;-1.506;2022-11-20T07:31:07;11.10;96.00
34644;DHT22;26931;43.498;-1.506;2022-11-20T07:33:41;11.20;96.10
34644;DHT22;26931;43.498;-1.506;2022-11-20T07:36:07;11.10;96.10
34644;DHT22;26931;43.498;-1.506;2022-11-20T07:38:33;11.20;96.10
34644;DHT22;26931;43.498;-1.506;2022-11-20T07:41:04;11.20;96.10
34644;DHT22;26931;43.498;-1.506;2022-11-20T07:43:30;11.20;96.10
34644;DHT22;26931;43.498;-1.506;2022-11-20T07:45:57;11.30;96.20
34644;DHT22;26931;43.498;-1.506;2022-11-20T07:48:23;11.30;96.20
34644;DHT22;26931;43.498;-1.506;2022-11-20T07:50:49;11.40;96.10
34644;DHT22;26931;43.498;-1.506;2022-11-20T07:53:15;11.40;96.20
34644;DHT22;26931;43.498;-1.506;2022-11-20T07:55:46;11.40;96.20
34644;DHT22;26931;43.498;-1.506;2022-11-20T07:58:12;11.40;96.10
34644;DHT22;26931;43.498;-1.506;2022-11-20T08:00:39;11.50;96.10
34644;DHT22;26931;43.498;-1.506;2022-11-20T08:03:05;11.50;96.10
34644;DHT22;26931;43.498;-1.506;2022-11-20T08:05:31;11.50;96.10
34644;DHT22;26931;43.498;-1.506;2022-11-20T08:07:57;11.60;96.10
34644;DHT22;26931;43.498;-1.506;2022-11-20T08:10:23;11.60;96.20
34644;DHT22;26931;43.498;-1.506;2022-11-20T08:12:50;11.70;96.30
34644;DHT22;26931;43.498;-1.506;2022-11-20T08:15:35;11.70;96.30
34644;DHT22;26931;43.498;-1.506;2022-11-20T08:18:07;11.70;96.40
34644;DHT22;26931;43.498;-1.506;2022-11-20T08:20:34;11.70;96.50
34644;DHT22;26931;43.498;-1.506;2022-11-20T08:23:01;11.70;96.60
34644;DHT22;26931;43.498;-1.506;2022-11-20T08:25:30;11.70;96.70
34644;DHT22;26931;43.498;-1.506;2022-11-20T08:28:01;11.70;96.80
34644;DHT22;26931;43.498;-1.506;2022-11-20T08:30:27;11.80;96.90
34644;DHT22;26931;43.498;-1.506;2022-11-20T08:32:53;11.80;96.90
34644;DHT22;26931;43.498;-1.506;2022-11-20T08:35:20;11.80;96.90
34644;DHT22;26931;43.498;-1.506;2022-11-20T08:37:46;11.80;97.00
34644;DHT22;26931;43.498;-1.506;2022-11-20T08:40:13;11.90;97.10
34644;DHT22;26931;43.498;-1.506;2022-11-20T08:42:48;11.90;97.10
34644;DHT22;26931;43.498;-1.506;2022-11-20T08:45:14;12.00;97.10
34644;DHT22;26931;43.498;-1.506;2022-11-20T08:47:40;12.00;97.20
34644;DHT22;26931;43.498;-1.506;2022-11-20T08:50:08;12.00;97.20
34644;DHT22;26931;43.498;-1.506;2022-11-20T08:52:34;12.00;97.20
34644;DHT22;26931;43.498;-1.506;2022-11-20T08:55:00;12.10;97.20
34644;DHT22;26931;43.498;-1.506;2022-11-20T08:57:26;12.10;97.30
34644;DHT22;26931;43.498;-1.506;2022-11-20T08:59:52;12.20;97.30
34644;DHT22;26931;43.498;-1.506;2022-11-20T09:02:18;12.20;97.30
34644;DHT22;26931;43.498;-1.506;2022-11-20T09:04:43;12.20;97.40
34644;DHT22;26931;43.498;-1.506;2022-11-20T09:07:09;12.30;97.40
34644;DHT22;26931;43.498;-1.506;2022-11-20T09:09:35;12.30;97.40
34644;DHT22;26931;43.498;-1.506;2022-11-20T09:12:01;12.30;97.40
34644;DHT22;26931;43.498;-1.506;2022-11-20T09:14:27;12.60;97.50
34644;DHT22;26931;43.498;-1.506;2022-11-20T09:16:56;12.50;97.50
34644;DHT22;26931;43.498;-1.506;2022-11-20T09:19:23;12.60;97.60
34644;DHT22;26931;43.498;-1.506;2022-11-20T09:21:49;12.70;97.50
34644;DHT22;26931;43.498;-1.506;2022-11-20T09:24:16;12.80;97.60
34644;DHT22;26931;43.498;-1.506;2022-11-20T09:26:42;12.90;97.50
34644;DHT22;26931;43.498;-1.506;2022-11-20T09:29:08;13.00;97.50
34644;DHT22;26931;43.498;-1.506;2022-11-20T09:31:34;13.20;97.50
34644;DHT22;26931;43.498;-1.506;2022-11-20T09:34:00;13.30;97.50
34644;DHT22;26931;43.498;-1.506;2022-11-20T09:36:26;13.40;97.40
34644;DHT22;26931;43.498;-1.506;2022-11-20T09:38:52;13.50;97.40
34644;DHT22;26931;43.498;-1.506;2022-11-20T09:53:02;14.10;97.00
34644;DHT22;26931;43.498;-1.506;2022-11-20T09:55:31;14.30;96.90
34644;DHT22;26931;43.498;-1.506;2022-11-20T09:57:58;14.40;96.80
34644;DHT22;26931;43.498;-1.506;2022-11-20T10:00:25;14.50;96.80
34644;DHT22;26931;43.498;-1.506;2022-11-20T10:05:47;14.50;96.80
34644;DHT22;26931;43.498;-1.506;2022-11-20T10:11:35;14.60;96.80
34644;DHT22;26931;43.498;-1.506;2022-11-20T10:17:15;14.70;96.70
34644;DHT22;26931;43.498;-1.506;2022-11-20T10:22:34;14.80;96.70
34644;DHT22;26931;43.498;-1.506;2022-11-20T10:28:04;15.00;96.60
34644;DHT22;26931;43.498;-1.506;2022-11-20T10:30:37;15.10;96.60
34644;DHT22;26931;43.498;-1.506;2022-11-20T10:33:21;15.00;96.50
34644;DHT22;26931;43.498;-1.506;2022-11-20T10:36:17;15.30;96.60
34644;DHT22;26931;43.498;-1.506;2022-11-20T10:39:14;15.40;96.50
34644;DHT22;26931;43.498;-1.506;2022-11-20T10:41:43;15.10;96.30
34644;DHT22;26931;43.498;-1.506;2022-11-20T10:44:15;15.20;96.40
34644;DHT22;26931;43.498;-1.506;2022-11-20T10:47:03;15.20;96.60
34644;DHT22;26931;43.498;-1.506;2022-11-20T10:49:31;15.20;96.50
34644;DHT22;26931;43.498;-1.506;2022-11-20T10:52:11;15.20;96.30
34644;DHT22;26931;43.498;-1.506;2022-11-20T10:54:58;15.30;96.00
34644;DHT22;26931;43.498;-1.506;2022-11-20T11:00:10;15.30;95.40
34644;DHT22;26931;43.498;-1.506;2022-11-20T11:02:52;15.30;95.00
34644;DHT22;26931;43.498;-1.506;2022-11-20T11:05:36;15.30;94.50
34644;DHT22;26931;43.498;-1.506;2022-11-20T11:08:09;15.50;94.00
34644;DHT22;26931;43.498;-1.506;2022-11-20T11:10:53;15.30;93.60
34644;DHT22;26931;43.498;-1.506;2022-11-20T11:13:28;15.30;93.30
34644;DHT22;26931;43.498;-1.506;2022-11-20T11:15:54;15.30;93.10
34644;DHT22;26931;43.498;-1.506;2022-11-20T11:18:28;15.30;93.00
34644;DHT22;26931;43.498;-1.506;2022-11-20T11:20:56;15.40;92.90
34644;DHT22;26931;43.498;-1.506;2022-11-20T11:23:40;15.40;92.90
34644;DHT22;26931;43.498;-1.506;2022-11-20T11:26:28;15.40;93.00
34644;DHT22;26931;43.498;-1.506;2022-11-20T11:28:57;15.30;93.00
34644;DHT22;26931;43.498;-1.506;2022-11-20T11:31:28;15.40;92.80
34644;DHT22;26931;43.498;-1.506;2022-11-20T11:34:05;15.50;92.70
34644;DHT22;26931;43.498;-1.506;2022-11-20T11:36:34;15.50;92.20
34644;DHT22;26931;43.498;-1.506;2022-11-20T11:39:02;15.60;91.90
34644;DHT22;26931;43.498;-1.506;2022-11-20T11:41:32;15.60;91.60
34644;DHT22;26931;43.498;-1.506;2022-11-20T11:44:19;15.60;91.40
34644;DHT22;26931;43.498;-1.506;2022-11-20T11:47:05;15.60;91.20
34644;DHT22;26931;43.498;-1.506;2022-11-20T11:49:34;15.60;91.00
34644;DHT22;26931;43.498;-1.506;2022-11-20T11:52:17;15.70;90.80
34644;DHT22;26931;43.498;-1.506;2022-11-20T11:54:55;15.90;91.00
34644;DHT22;26931;43.498;-1.506;2022-11-20T12:02:36;15.80;89.50
34644;DHT22;26931;43.498;-1.506;2022-11-20T12:11:22;15.80;87.10
34644;DHT22;26931;43.498;-1.506;2022-11-20T12:14:19;15.80;86.80
34644;DHT22;26931;43.498;-1.506;2022-11-20T12:16:50;15.80;86.90
34644;DHT22;26931;43.498;-1.506;2022-11-20T12:19:18;15.80;86.70
34644;DHT22;26931;43.498;-1.506;2022-11-20T12:21:55;15.90;86.40
34644;DHT22;26931;43.498;-1.506;2022-11-20T12:24:55;15.90;86.40
34644;DHT22;26931;43.498;-1.506;2022-11-20T12:27:54;15.90;86.30
34644;DHT22;26931;43.498;-1.506;2022-11-20T12:30:23;15.80;86.30
34644;DHT22;26931;43.498;-1.506;2022-11-20T12:47:23;16.00;85.50
34644;DHT22;26931;43.498;-1.506;2022-11-20T12:50:15;16.10;85.20
34644;DHT22;26931;43.498;-1.506;2022-11-20T12:53:01;16.20;85.10
34644;DHT22;26931;43.498;-1.506;2022-11-20T12:58:20;16.10;84.90
34644;DHT22;26931;43.498;-1.506;2022-11-20T13:04:18;16.30;84.90
34644;DHT22;26931;43.498;-1.506;2022-11-20T13:06:48;16.20;84.90
34644;DHT22;26931;43.498;-1.506;2022-11-20T13:09:18;16.20;84.80
34644;DHT22;26931;43.498;-1.506;2022-11-20T13:12:11;16.10;84.70
34644;DHT22;26931;43.498;-1.506;2022-11-20T13:15:00;16.30;84.70
34644;DHT22;26931;43.498;-1.506;2022-11-20T13:20:12;16.30;84.50
34644;DHT22;26931;43.498;-1.506;2022-11-20T13:22:46;16.40;84.40
34644;DHT22;26931;43.498;-1.506;2022-11-20T13:25:28;16.40;84.40
34644;DHT22;26931;43.498;-1.506;2022-11-20T13:27:56;16.40;84.40
34644;DHT22;26931;43.498;-1.506;2022-11-20T13:30:24;16.40;84.40
34644;DHT22;26931;43.498;-1.506;2022-11-20T13:33:03;16.40;84.40
34644;DHT22;26931;43.498;-1.506;2022-11-20T13:35:40;16.40;84.60
34644;DHT22;26931;43.498;-1.506;2022-11-20T13:38:11;16.60;84.80
34644;DHT22;26931;43.498;-1.506;2022-11-20T13:40:49;16.30;84.70
34644;DHT22;26931;43.498;-1.506;2022-11-20T13:46:03;16.30;84.70
34644;DHT22;26931;43.498;-1.506;2022-11-20T13:48:34;16.10;84.80
34644;DHT22;26931;43.498;-1.506;2022-11-20T13:59:51;16.20;85.90
34644;DHT22;26931;43.498;-1.506;2022-11-20T14:02:23;16.20;85.70
34644;DHT22;26931;43.498;-1.506;2022-11-20T14:04:54;16.40;85.80
34644;DHT22;26931;43.498;-1.506;2022-11-20T14:07:25;16.10;85.80
34644;DHT22;26931;43.498;-1.506;2022-11-20T14:09:55;16.30;86.20
34644;DHT22;26931;43.498;-1.506;2022-11-20T14:12:29;16.10;86.60
34644;DHT22;26931;43.498;-1.506;2022-11-20T14:14:56;15.90;87.80
34644;DHT22;26931;43.498;-1.506;2022-11-20T14:19:52;15.80;90.50
34644;DHT22;26931;43.498;-1.506;2022-11-20T14:22:23;15.70;91.20
34644;DHT22;26931;43.498;-1.506;2022-11-20T14:27:44;15.60;92.20
34644;DHT22;26931;43.498;-1.506;2022-11-20T14:30:17;15.50;92.30
34644;DHT22;26931;43.498;-1.506;2022-11-20T14:32:45;15.50;92.60
34644;DHT22;26931;43.498;-1.506;2022-11-20T14:35:28;15.40;92.70
34644;DHT22;26931;43.498;-1.506;2022-11-20T14:37:55;15.40;93.00
34644;DHT22;26931;43.498;-1.506;2022-11-20T14:40:30;15.30;93.00
34644;DHT22;26931;43.498;-1.506;2022-11-20T14:42:57;15.30;93.30
34644;DHT22;26931;43.498;-1.506;2022-11-20T14:45:25;15.00;93.50
34644;DHT22;26931;43.498;-1.506;2022-11-20T14:47:54;15.20;93.80
34644;DHT22;26931;43.498;-1.506;2022-11-20T14:50:26;15.20;94.00
34644;DHT22;26931;43.498;-1.506;2022-11-20T14:52:58;15.20;94.10
34644;DHT22;26931;43.498;-1.506;2022-11-20T14:55:37;15.20;94.10
34644;DHT22;26931;43.498;-1.506;2022-11-20T14:58:26;15.20;94.10
34644;DHT22;26931;43.498;-1.506;2022-11-20T15:01:01;15.20;94.40
34644;DHT22;26931;43.498;-1.506;2022-11-20T15:03:36;15.10;94.00
34644;DHT22;26931;43.498;-1.506;2022-11-20T15:06:03;15.20;94.00
34644;DHT22;26931;43.498;-1.506;2022-11-20T15:08:29;15.10;93.90
34644;DHT22;26931;43.498;-1.506;2022-11-20T15:10:55;15.10;93.90
34644;DHT22;26931;43.498;-1.506;2022-11-20T15:13:40;15.00;93.90
34644;DHT22;26931;43.498;-1.506;2022-11-20T15:16:21;15.10;94.00
34644;DHT22;26931;43.498;-1.506;2022-11-20T15:18:48;15.00;94.00
34644;DHT22;26931;43.498;-1.506;2022-11-20T15:21:16;15.00;94.00
34644;DHT22;26931;43.498;-1.506;2022-11-20T15:23:42;15.00;93.90
34644;DHT22;26931;43.498;-1.506;2022-11-20T15:26:11;15.00;93.80
34644;DHT22;26931;43.498;-1.506;2022-11-20T15:28:42;15.00;93.70
34644;DHT22;26931;43.498;-1.506;2022-11-20T15:31:13;15.10;93.60
34644;DHT22;26931;43.498;-1.506;2022-11-20T15:33:39;15.10;93.50
34644;DHT22;26931;43.498;-1.506;2022-11-20T15:36:06;15.10;93.40
34644;DHT22;26931;43.498;-1.506;2022-11-20T15:38:32;15.10;93.30
34644;DHT22;26931;43.498;-1.506;2022-11-20T15:40:58;15.20;93.40
34644;DHT22;26931;43.498;-1.506;2022-11-20T15:43:24;15.10;93.30
34644;DHT22;26931;43.498;-1.506;2022-11-20T15:46:02;15.30;93.30
34644;DHT22;26931;43.498;-1.506;2022-11-20T15:48:36;15.00;93.40
34644;DHT22;26931;43.498;-1.506;2022-11-20T15:53:40;14.80;93.50
34644;DHT22;26931;43.498;-1.506;2022-11-20T15:56:09;15.00;93.50
34644;DHT22;26931;43.498;-1.506;2022-11-20T15:58:36;15.00;93.50
34644;DHT22;26931;43.498;-1.506;2022-11-20T16:01:02;15.00;93.40
34644;DHT22;26931;43.498;-1.506;2022-11-20T16:03:28;15.00;93.30
34644;DHT22;26931;43.498;-1.506;2022-11-20T16:05:54;15.00;93.20
34644;DHT22;26931;43.498;-1.506;2022-11-20T16:08:20;15.00;93.20
34644;DHT22;26931;43.498;-1.506;2022-11-20T16:10:46;15.00;93.20
34644;DHT22;26931;43.498;-1.506;2022-11-20T16:13:14;15.10;93.10
34644;DHT22;26931;43.498;-1.506;2022-11-20T16:16:02;15.00;92.90
34644;DHT22;26931;43.498;-1.506;2022-11-20T16:18:30;15.00;92.50
34644;DHT22;26931;43.498;-1.506;2022-11-20T16:20:57;15.00;92.30
34644;DHT22;26931;43.498;-1.506;2022-11-20T16:23:23;15.00;92.10
34644;DHT22;26931;43.498;-1.506;2022-11-20T16:25:50;15.10;92.10
34644;DHT22;26931;43.498;-1.506;2022-11-20T16:28:17;15.10;92.20
34644;DHT22;26931;43.498;-1.506;2022-11-20T16:30:43;15.10;92.30
34644;DHT22;26931;43.498;-1.506;2022-11-20T16:33:14;15.10;92.40
34644;DHT22;26931;43.498;-1.506;2022-11-20T16:35:40;15.10;92.60
34644;DHT22;26931;43.498;-1.506;2022-11-20T16:38:06;15.10;92.70
34644;DHT22;26931;43.498;-1.506;2022-11-20T16:40:33;15.00;92.80
34644;DHT22;26931;43.498;-1.506;2022-11-20T16:43:09;15.00;92.90
34644;DHT22;26931;43.498;-1.506;2022-11-20T16:45:45;15.00;93.00
34644;DHT22;26931;43.498;-1.506;2022-11-20T16:48:15;14.90;92.90
34644;DHT22;26931;43.498;-1.506;2022-11-20T16:50:48;14.90;93.00
34644;DHT22;26931;43.498;-1.506;2022-11-20T16:53:14;14.80;93.10
34644;DHT22;26931;43.498;-1.506;2022-11-20T16:55:40;15.10;93.30
34644;DHT22;26931;43.498;-1.506;2022-11-20T16:58:06;14.80;93.30
34644;DHT22;26931;43.498;-1.506;2022-11-20T17:00:36;14.80;93.40
34644;DHT22;26931;43.498;-1.506;2022-11-20T17:03:03;14.80;93.60
34644;DHT22;26931;43.498;-1.506;2022-11-20T17:05:30;14.70;93.80